createdAt,value
2022-08-29T00:02:21.497Z,18.47
2022-08-29T00:05:08.414Z,18.36
2022-08-29T00:07:36.432Z,18.29
2022-08-29T00:10:05.713Z,18.27
2022-08-29T00:12:39.271Z,18.21
2022-08-29T00:15:21.043Z,18.07
2022-08-29T00:17:50.174Z,18.25
2022-08-29T00:20:30.290Z,18.25
2022-08-29T00:23:24.821Z,18.32
2022-08-29T00:25:51.781Z,18.33
2022-08-29T00:28:36.174Z,18.32
2022-08-29T00:31:03.625Z,18.25
2022-08-29T00:33:31.860Z,18.26
2022-08-29T00:35:59.275Z,18.20
2022-08-29T00:38:27.893Z,18.22
2022-08-29T00:40:57.635Z,18.16
2022-08-29T00:43:29.324Z,18.15
2022-08-29T00:46:28.374Z,18.14
2022-08-29T00:49:01.024Z,18.09
2022-08-29T00:51:29.216Z,18.02
2022-08-29T00:54:08.371Z,17.97
2022-08-29T00:56:38.364Z,18.01
2022-08-29T00:59:28.192Z,18.05
2022-08-29T01:01:58.800Z,17.99
2022-08-29T01:04:26.995Z,17.85
2022-08-29T01:06:54.776Z,17.85
2022-08-29T01:09:24.824Z,17.72
2022-08-29T01:12:16.695Z,17.78
2022-08-29T01:15:01.524Z,17.69
2022-08-29T01:17:42.945Z,17.62
2022-08-29T01:20:40.875Z,17.61
2022-08-29T01:23:12.914Z,17.51
2022-08-29T01:25:49.086Z,17.51
2022-08-29T01:28:38.072Z,17.64
2022-08-29T01:31:57.033Z,17.60
2022-08-29T01:34:42.183Z,17.44
2022-08-29T01:37:15.240Z,17.45
2022-08-29T01:39:45.696Z,17.55
2022-08-29T01:42:17.928Z,17.42
2022-08-29T01:44:50.882Z,17.33
2022-08-29T01:47:35.616Z,17.29
2022-08-29T01:50:08.296Z,17.37
2022-08-29T01:52:43.053Z,17.16
2022-08-29T01:55:22.088Z,17.21
2022-08-29T01:57:50.254Z,17.28
2022-08-29T02:00:19.670Z,17.24
2022-08-29T02:02:57.102Z,17.19
2022-08-29T02:05:48.546Z,17.24
2022-08-29T02:08:16.743Z,17.01
2022-08-29T02:10:48.441Z,17.06
2022-08-29T02:13:15.483Z,17.07
2022-08-29T02:15:57.848Z,17.03
2022-08-29T02:18:26.877Z,17.06
2022-08-29T02:20:56.549Z,17.00
2022-08-29T02:23:31.039Z,16.96
2022-08-29T02:25:59.897Z,17.03
2022-08-29T02:28:29.385Z,16.88
2022-08-29T02:30:58.990Z,16.74
2022-08-29T02:33:27.444Z,16.83
2022-08-29T02:36:00.072Z,16.72
2022-08-29T02:38:29.283Z,16.67
2022-08-29T02:40:59.912Z,16.63
2022-08-29T02:43:29.947Z,16.75
2022-08-29T02:45:58.697Z,16.66
2022-08-29T02:48:27.136Z,16.54
2022-08-29T02:50:59.303Z,16.61
2022-08-29T02:53:37.815Z,16.56
2022-08-29T02:56:07.060Z,16.60
2022-08-29T02:58:37.240Z,16.50
2022-08-29T03:01:04.538Z,16.48
2022-08-29T03:03:41.344Z,16.47
2022-08-29T03:06:10.366Z,16.46
2022-08-29T03:08:44.381Z,16.61
2022-08-29T03:11:14.519Z,16.68
2022-08-29T03:13:45.494Z,16.67
2022-08-29T03:16:14.328Z,16.72
2022-08-29T03:18:50.746Z,16.69
2022-08-29T03:21:24.173Z,16.66
2022-08-29T03:23:58.500Z,16.60
2022-08-29T03:26:25.937Z,16.49
2022-08-29T03:28:53.077Z,16.56
2022-08-29T03:31:27.410Z,16.40
2022-08-29T03:33:56.554Z,16.22
2022-08-29T03:36:27.351Z,16.31
2022-08-29T03:39:04.745Z,16.25
2022-08-29T03:41:32.166Z,16.25
2022-08-29T03:44:02.678Z,16.14
2022-08-29T03:46:40.066Z,15.91
2022-08-29T03:49:08.456Z,16.02
2022-08-29T03:51:40.641Z,16.12
2022-08-29T03:54:16.585Z,16.08
2022-08-29T03:56:46.945Z,16.14
2022-08-29T03:59:18.810Z,16.00
2022-08-29T04:02:20.458Z,15.87
2022-08-29T04:05:10.190Z,15.99
2022-08-29T04:07:50.446Z,16.18
2022-08-29T04:10:27.525Z,16.11
2022-08-29T04:13:06.399Z,16.04
2022-08-29T04:15:39.338Z,16.10
2022-08-29T04:18:13.474Z,16.09
2022-08-29T04:20:45.901Z,16.21
2022-08-29T04:23:24.033Z,16.16
2022-08-29T04:26:37.306Z,16.36
2022-08-29T04:29:08.674Z,16.41
2022-08-29T04:31:43.874Z,16.37
2022-08-29T04:34:17.375Z,16.37
2022-08-29T04:36:47.566Z,16.22
2022-08-29T04:39:16.812Z,16.20
2022-08-29T04:41:45.429Z,16.29
2022-08-29T04:44:13.497Z,16.24
2022-08-29T04:46:43.695Z,16.42
2022-08-29T04:49:16.494Z,16.56
2022-08-29T04:51:53.396Z,16.63
2022-08-29T04:54:21.457Z,16.48
2022-08-29T04:56:57.316Z,16.55
2022-08-29T04:59:35.236Z,16.59
2022-08-29T05:02:05.545Z,16.53
2022-08-29T05:04:32.757Z,16.58
2022-08-29T05:07:01.793Z,16.60
2022-08-29T05:09:28.945Z,16.56
2022-08-29T05:11:58.847Z,16.67
2022-08-29T05:14:27.872Z,16.82
2022-08-29T05:16:57.406Z,16.83
2022-08-29T05:19:26.459Z,16.75
2022-08-29T05:21:58.242Z,16.85
2022-08-29T05:24:49.982Z,16.79
2022-08-29T05:27:20.384Z,16.65
2022-08-29T05:29:49.286Z,16.63
2022-08-29T05:32:29.734Z,16.62
2022-08-29T05:34:56.764Z,16.72
2022-08-29T05:37:35.642Z,16.88
2022-08-29T05:40:12.048Z,16.91
2022-08-29T05:42:39.661Z,17.05
2022-08-29T05:45:08.401Z,17.16
2022-08-29T05:47:36.520Z,17.17
2022-08-29T05:50:29.208Z,17.18
2022-08-29T05:52:58.418Z,17.25
2022-08-29T05:55:39.155Z,17.10
2022-08-29T05:58:14.468Z,17.24
2022-08-29T06:00:44.212Z,17.33
2022-08-29T06:03:14.670Z,17.44
2022-08-29T06:05:52.286Z,17.49
2022-08-29T06:08:21.850Z,17.45
2022-08-29T06:10:55.022Z,17.51
2022-08-29T06:13:25.326Z,17.50
2022-08-29T06:15:53.551Z,17.52
2022-08-29T06:18:22.909Z,17.67
2022-08-29T06:21:05.730Z,17.74
2022-08-29T06:23:41.268Z,17.90
2022-08-29T06:26:11.009Z,17.77
2022-08-29T06:28:40.082Z,17.79
2022-08-29T06:31:22.822Z,17.78
2022-08-29T06:33:58.946Z,18.05
2022-08-29T06:36:29.109Z,18.10
2022-08-29T06:39:00.989Z,18.10
2022-08-29T06:41:29.466Z,18.10
2022-08-29T06:43:57.743Z,18.18
2022-08-29T06:46:32.457Z,18.16
2022-08-29T06:49:04.376Z,18.21
2022-08-29T06:51:33.880Z,18.01
2022-08-29T06:54:07.027Z,18.03
2022-08-29T06:56:37.933Z,18.07
2022-08-29T06:59:06.437Z,18.32
2022-08-29T07:01:34.522Z,18.40
2022-08-29T07:04:02.239Z,18.34
2022-08-29T07:06:31.475Z,18.05
2022-08-29T07:09:00.236Z,17.97
2022-08-29T07:11:30.620Z,18.28
2022-08-29T07:14:00.298Z,18.24
2022-08-29T07:16:29.728Z,18.36
2022-08-29T07:18:58.418Z,18.59
2022-08-29T07:21:27.059Z,18.59
2022-08-29T07:24:04.311Z,18.83
2022-08-29T07:26:36.545Z,19.12
2022-08-29T07:29:09.407Z,19.29
2022-08-29T07:31:39.390Z,19.22
2022-08-29T07:34:10.894Z,19.29
2022-08-29T07:36:52.439Z,19.22
2022-08-29T07:39:20.733Z,19.23
2022-08-29T07:41:48.586Z,19.44
2022-08-29T07:44:23.295Z,19.60
2022-08-29T07:46:57.874Z,19.65
2022-08-29T07:49:36.070Z,19.68
2022-08-29T07:52:40.245Z,19.46
2022-08-29T07:55:09.139Z,19.77
2022-08-29T07:57:41.450Z,19.95
2022-08-29T08:00:12.547Z,19.87
2022-08-29T08:02:45.416Z,20.06
2022-08-29T08:05:15.669Z,20.10
2022-08-29T08:07:43.554Z,20.15
2022-08-29T08:10:20.407Z,20.27
2022-08-29T08:12:49.318Z,20.28
2022-08-29T08:15:23.301Z,20.14
2022-08-29T08:17:51.505Z,20.37
2022-08-29T08:20:24.365Z,20.64
2022-08-29T08:23:20.596Z,20.81
2022-08-29T08:25:57.791Z,20.49
2022-08-29T08:28:28.621Z,20.61
2022-08-29T08:31:05.106Z,20.72
2022-08-29T08:33:58.273Z,20.38
2022-08-29T08:36:28.968Z,20.48
2022-08-29T08:38:57.938Z,20.90
2022-08-29T08:41:33.874Z,21.20
2022-08-29T08:44:14.365Z,21.07
2022-08-29T08:46:48.114Z,20.98
2022-08-29T08:49:39.224Z,20.78
2022-08-29T08:52:14.277Z,20.74
2022-08-29T08:54:59.977Z,20.86
2022-08-29T08:57:42.085Z,21.16
2022-08-29T09:00:13.905Z,21.60
2022-08-29T09:03:12.180Z,22.00
2022-08-29T09:06:01.877Z,22.17
2022-08-29T09:08:51.139Z,21.69
2022-08-29T09:11:54.941Z,21.60
2022-08-29T09:14:35.492Z,21.81
2022-08-29T09:17:03.774Z,22.15
2022-08-29T09:19:34.824Z,22.59
2022-08-29T09:22:18.653Z,22.19
2022-08-29T09:24:54.080Z,22.44
2022-08-29T09:27:26.683Z,22.43
2022-08-29T09:30:11.776Z,22.59
2022-08-29T09:33:05.540Z,22.92
2022-08-29T09:35:45.647Z,23.20
2022-08-29T09:38:31.781Z,23.28
2022-08-29T09:41:02.840Z,23.44
2022-08-29T09:43:40.048Z,23.00
2022-08-29T09:46:23.762Z,23.18
2022-08-29T09:49:05.744Z,23.03
2022-08-29T09:51:38.580Z,23.21
2022-08-29T09:54:32.287Z,22.90
2022-08-29T09:57:06.277Z,23.21
2022-08-29T09:59:45.250Z,23.48
2022-08-29T10:02:46.856Z,23.45
2022-08-29T10:05:36.193Z,23.37
2022-08-29T10:08:06.315Z,23.26
2022-08-29T10:10:36.959Z,23.61
2022-08-29T10:13:22.189Z,23.82
2022-08-29T10:16:12.009Z,24.29
2022-08-29T10:18:54.114Z,24.38
2022-08-29T10:21:38.222Z,24.51
2022-08-29T10:24:24.894Z,24.92
2022-08-29T10:27:39.963Z,25.50
2022-08-29T10:30:49.746Z,23.88
2022-08-29T10:33:55.395Z,24.54
2022-08-29T10:36:31.681Z,24.61
2022-08-29T10:39:25.356Z,25.22
2022-08-29T10:42:12.736Z,25.23
2022-08-29T10:45:00.280Z,25.22
2022-08-29T10:47:33.459Z,25.20
2022-08-29T10:50:27.529Z,25.07
2022-08-29T10:53:37.197Z,25.32
2022-08-29T10:56:23.569Z,25.62
2022-08-29T10:59:05.998Z,25.53
2022-08-29T11:01:37.680Z,25.69
2022-08-29T11:04:26.969Z,25.45
2022-08-29T11:07:23.796Z,25.40
2022-08-29T11:10:25.161Z,25.38
2022-08-29T11:13:13.010Z,24.72
2022-08-29T11:16:15.071Z,25.02
2022-08-29T11:19:00.621Z,24.92
2022-08-29T11:21:42.118Z,25.44
2022-08-29T11:24:12.537Z,26.06
2022-08-29T11:27:01.097Z,26.39
2022-08-29T11:29:51.288Z,26.17
2022-08-29T11:32:32.236Z,26.11
2022-08-29T11:35:43.607Z,26.83
2022-08-29T11:38:42.120Z,27.28
2022-08-29T11:41:31.042Z,26.49
2022-08-29T11:44:28.173Z,25.83
2022-08-29T11:47:42.924Z,26.60
2022-08-29T11:50:09.874Z,26.69
2022-08-29T11:52:37.171Z,26.39
2022-08-29T11:55:34.975Z,26.81
2022-08-29T11:58:26.040Z,27.71
2022-08-29T12:00:56.658Z,27.03
2022-08-29T12:03:37.440Z,27.77
2022-08-29T12:06:15.906Z,27.89
2022-08-29T12:08:51.191Z,28.48
2022-08-29T12:11:19.759Z,29.00
2022-08-29T12:13:48.700Z,28.54
2022-08-29T12:16:25.143Z,27.94
2022-08-29T12:18:58.213Z,27.61
2022-08-29T12:21:46.058Z,28.04
2022-08-29T12:24:40.831Z,28.47
2022-08-29T12:27:44.680Z,28.98
2022-08-29T12:30:14.770Z,28.99
2022-08-29T12:33:06.633Z,29.10
2022-08-29T12:35:34.002Z,29.29
2022-08-29T12:38:23.211Z,29.43
2022-08-29T12:41:04.979Z,28.98
2022-08-29T12:43:35.927Z,29.07
2022-08-29T12:46:10.432Z,29.31
2022-08-29T12:48:58.039Z,29.36
2022-08-29T12:51:42.830Z,28.87
2022-08-29T12:54:12.679Z,28.21
2022-08-29T12:56:49.306Z,28.72
2022-08-29T12:59:43.962Z,28.86
2022-08-29T13:02:24.293Z,28.89
2022-08-29T13:04:52.561Z,28.62
2022-08-29T13:07:28.926Z,28.80
2022-08-29T13:09:59.622Z,29.28
2022-08-29T13:13:11.053Z,29.37
2022-08-29T13:19:22.055Z,28.98
2022-08-29T13:22:04.044Z,28.60
2022-08-29T13:24:35.193Z,28.85
2022-08-29T13:27:06.283Z,29.04
2022-08-29T13:29:42.657Z,29.84
2022-08-29T13:32:20.614Z,30.37
2022-08-29T13:35:04.675Z,30.10
2022-08-29T13:37:43.172Z,29.96
2022-08-29T13:40:51.774Z,29.15
2022-08-29T13:44:11.575Z,28.91
2022-08-29T13:46:47.345Z,28.88
2022-08-29T13:49:26.068Z,28.88
2022-08-29T13:52:13.975Z,29.36
2022-08-29T13:54:54.316Z,29.64
2022-08-29T13:57:26.414Z,29.94
2022-08-29T13:59:54.563Z,30.18
2022-08-29T14:02:35.803Z,29.92
2022-08-29T14:05:03.232Z,29.72
2022-08-29T14:07:32.132Z,29.16
2022-08-29T14:10:01.574Z,29.48
2022-08-29T14:12:33.850Z,29.93
2022-08-29T14:15:08.350Z,30.26
2022-08-29T14:17:37.277Z,30.48
2022-08-29T14:20:08.024Z,30.56
2022-08-29T14:22:58.055Z,30.13
2022-08-29T14:26:01.268Z,30.60
2022-08-29T14:28:28.392Z,30.77
2022-08-29T14:31:01.420Z,30.31
2022-08-29T14:33:32.510Z,30.10
2022-08-29T14:36:16.794Z,29.53
2022-08-29T14:38:55.008Z,29.66
2022-08-29T14:41:23.220Z,30.05
2022-08-29T14:43:54.542Z,29.86
2022-08-29T14:46:23.114Z,29.31
2022-08-29T14:49:04.495Z,29.62
2022-08-29T14:51:32.592Z,30.27
2022-08-29T14:53:59.748Z,30.48
2022-08-29T14:56:50.062Z,30.20
2022-08-29T14:59:26.005Z,29.87
2022-08-29T15:01:55.752Z,29.97
2022-08-29T15:04:36.684Z,29.52
2022-08-29T15:07:11.103Z,29.77
2022-08-29T15:09:49.545Z,29.78
2022-08-29T15:12:29.231Z,30.20
2022-08-29T15:14:57.705Z,30.30
2022-08-29T15:17:29.088Z,30.61
2022-08-29T15:22:47.420Z,31.41
2022-08-29T15:25:25.619Z,31.46
2022-08-29T15:27:52.957Z,31.01
2022-08-29T15:30:24.462Z,30.44
2022-08-29T15:32:56.758Z,29.65
2022-08-29T15:35:27.242Z,29.90
2022-08-29T15:37:55.690Z,30.20
2022-08-29T15:40:23.178Z,30.44
2022-08-29T15:42:53.220Z,30.75
2022-08-29T15:45:27.652Z,31.13
2022-08-29T15:48:11.530Z,31.30
2022-08-29T15:51:16.953Z,31.43
2022-08-29T15:53:51.038Z,31.29
2022-08-29T15:56:20.250Z,31.39
2022-08-29T15:58:55.723Z,31.38
2022-08-29T16:01:24.942Z,31.27
2022-08-29T16:04:01.390Z,31.45
2022-08-29T16:06:41.288Z,31.61
2022-08-29T16:09:18.773Z,31.52
2022-08-29T16:12:01.128Z,31.51
2022-08-29T16:15:27.880Z,31.54
2022-08-29T16:18:25.877Z,31.43
2022-08-29T16:21:29.804Z,31.27
2022-08-29T16:24:01.318Z,31.16
2022-08-29T16:26:30.333Z,30.77
2022-08-29T16:28:59.633Z,30.44
2022-08-29T16:31:26.837Z,30.22
2022-08-29T16:34:04.285Z,29.89
2022-08-29T16:36:32.516Z,29.58
2022-08-29T16:39:47.954Z,29.49
2022-08-29T16:42:17.975Z,29.10
2022-08-29T16:45:08.855Z,28.77
2022-08-29T16:48:20.511Z,28.49
2022-08-29T16:51:25.424Z,28.09
2022-08-29T16:54:16.302Z,27.64
2022-08-29T16:56:45.546Z,27.35
2022-08-29T16:59:37.265Z,27.03
2022-08-29T17:02:49.679Z,26.70
2022-08-29T17:05:44.845Z,26.43
2022-08-29T17:08:19.174Z,26.14
2022-08-29T17:11:43.941Z,25.90
2022-08-29T17:14:19.953Z,25.49
2022-08-29T17:17:02.430Z,25.16
2022-08-29T17:19:33.772Z,24.88
2022-08-29T17:22:10.668Z,24.53
2022-08-29T17:24:43.516Z,24.25
2022-08-29T17:27:29.844Z,23.94
2022-08-29T17:30:22.043Z,23.79
2022-08-29T17:32:55.392Z,23.52
2022-08-29T17:35:23.314Z,23.45
2022-08-29T17:37:50.408Z,23.24
2022-08-29T17:40:17.830Z,22.98
2022-08-29T17:42:47.777Z,22.30
2022-08-29T17:45:15.754Z,22.13
2022-08-29T17:47:44.254Z,22.36
2022-08-29T17:50:12.768Z,22.34
2022-08-29T17:52:47.020Z,22.26
2022-08-29T17:55:20.307Z,22.18
2022-08-29T17:57:48.785Z,22.12
2022-08-29T18:00:25.350Z,22.00
2022-08-29T18:02:53.425Z,21.84
2022-08-29T18:05:22.923Z,21.71
2022-08-29T18:07:52.122Z,21.63
2022-08-29T18:10:25.900Z,21.51
2022-08-29T18:12:54.819Z,21.22
2022-08-29T18:15:35.653Z,21.01
2022-08-29T18:18:03.037Z,20.87
2022-08-29T18:20:38.371Z,20.69
2022-08-29T18:23:16.647Z,20.50
2022-08-29T18:25:45.860Z,20.47
2022-08-29T18:28:12.967Z,20.36
2022-08-29T18:30:41.197Z,20.26
2022-08-29T18:33:10.795Z,20.19
2022-08-29T18:35:39.164Z,20.17
2022-08-29T18:38:08.151Z,20.16
2022-08-29T18:40:39.575Z,20.14
2022-08-29T18:43:11.325Z,20.12
2022-08-29T18:45:44.978Z,20.06
2022-08-29T18:48:12.932Z,19.96
2022-08-29T18:50:43.746Z,19.82
2022-08-29T18:53:14.729Z,19.61
2022-08-29T18:55:52.182Z,19.62
2022-08-29T18:58:30.036Z,19.60
2022-08-29T19:00:59.931Z,19.49
2022-08-29T19:03:37.156Z,19.28
2022-08-29T19:06:07.766Z,19.11
2022-08-29T19:08:36.568Z,18.97
2022-08-29T19:11:09.289Z,18.57
2022-08-29T19:13:42.353Z,18.24
2022-08-29T19:16:14.704Z,18.26
2022-08-29T19:19:04.339Z,17.91
2022-08-29T19:21:37.109Z,17.89
2022-08-29T19:24:05.422Z,17.83
2022-08-29T19:27:01.963Z,17.71
2022-08-29T19:29:33.376Z,17.78
2022-08-29T19:32:34.188Z,17.86
2022-08-29T19:35:02.533Z,17.90
2022-08-29T19:37:45.303Z,17.81
2022-08-29T19:40:17.478Z,17.92
2022-08-29T19:42:46.452Z,17.86
2022-08-29T19:45:19.829Z,17.83
2022-08-29T19:48:03.697Z,17.88
2022-08-29T19:50:49.051Z,17.80
2022-08-29T19:53:26.821Z,17.73
2022-08-29T19:56:02.079Z,17.41
2022-08-29T19:59:23.128Z,17.28
2022-08-29T20:01:57.196Z,17.05
2022-08-29T20:04:28.206Z,16.42
2022-08-29T20:07:00.174Z,16.25
2022-08-29T20:09:27.529Z,16.57
2022-08-29T20:12:05.403Z,16.55
2022-08-29T20:14:34.931Z,16.44
2022-08-29T20:17:09.473Z,16.42
2022-08-29T20:19:40.164Z,16.48
2022-08-29T20:22:08.307Z,16.36
2022-08-29T20:24:40.533Z,16.36
2022-08-29T20:27:08.855Z,16.38
2022-08-29T20:32:09.242Z,15.82
2022-08-29T20:34:37.347Z,15.73
2022-08-29T20:37:09.006Z,15.50
2022-08-29T20:39:47.918Z,15.79
2022-08-29T20:42:30.691Z,15.71
2022-08-29T20:45:00.176Z,15.64
2022-08-29T20:47:51.582Z,15.92
2022-08-29T20:50:18.930Z,15.94
2022-08-29T20:53:05.668Z,15.77
2022-08-29T20:55:32.769Z,15.62
2022-08-29T20:58:01.545Z,15.54
2022-08-29T21:00:36.016Z,15.56
2022-08-29T21:03:23.637Z,15.54
2022-08-29T21:05:52.795Z,15.62
2022-08-29T21:08:23.683Z,15.40
2022-08-29T21:10:57.064Z,15.38
2022-08-29T21:13:29.308Z,15.38
2022-08-29T21:15:58.929Z,15.27
2022-08-29T21:18:35.090Z,15.30
2022-08-29T21:21:06.495Z,15.21
2022-08-29T21:23:34.563Z,15.19
2022-08-29T21:26:05.359Z,14.88
2022-08-29T21:28:35.204Z,14.91
2022-08-29T21:31:10.701Z,15.02
2022-08-29T21:33:45.736Z,14.98
2022-08-29T21:36:25.998Z,14.79
2022-08-29T21:39:08.236Z,14.69
2022-08-29T21:41:41.972Z,14.57
2022-08-29T21:44:11.928Z,14.54
2022-08-29T21:46:43.583Z,14.45
2022-08-29T21:49:17.289Z,14.43
2022-08-29T21:51:56.565Z,14.59
2022-08-29T21:54:23.605Z,14.63
2022-08-29T21:56:53.749Z,14.84
2022-08-29T21:59:23.305Z,14.93
2022-08-29T22:02:15.316Z,14.63
2022-08-29T22:04:42.513Z,14.34
2022-08-29T22:07:09.648Z,14.31
2022-08-29T22:09:50.983Z,14.37
2022-08-29T22:12:18.165Z,14.52
2022-08-29T22:15:05.670Z,14.44
2022-08-29T22:17:33.781Z,14.39
2022-08-29T22:20:04.418Z,14.24
2022-08-29T22:22:33.492Z,14.12
2022-08-29T22:25:06.989Z,14.25
2022-08-29T22:27:34.581Z,14.27
2022-08-29T22:30:02.686Z,14.42
2022-08-29T22:32:32.307Z,14.24
2022-08-29T22:35:06.882Z,14.17
2022-08-29T22:37:37.811Z,14.11
2022-08-29T22:40:16.861Z,14.05
2022-08-29T22:42:47.392Z,13.95
2022-08-29T22:45:16.344Z,13.99
2022-08-29T22:47:46.042Z,14.02
2022-08-29T22:50:20.059Z,14.00
2022-08-29T22:52:50.167Z,13.95
2022-08-29T22:58:13.800Z,13.78
2022-08-29T23:00:41.875Z,13.78
2022-08-29T23:03:10.079Z,13.80
2022-08-29T23:05:46.638Z,13.71
2022-08-29T23:08:17.529Z,13.85
2022-08-29T23:10:45.517Z,13.81
2022-08-29T23:13:16.790Z,13.92
2022-08-29T23:15:44.160Z,13.94
2022-08-29T23:18:11.375Z,13.79
2022-08-29T23:20:38.589Z,13.76
2022-08-29T23:23:08.614Z,13.82
2022-08-29T23:25:35.935Z,13.77
2022-08-29T23:28:03.125Z,13.74
2022-08-29T23:30:30.205Z,13.64
2022-08-29T23:33:18.166Z,13.76
2022-08-29T23:35:54.867Z,13.50
2022-08-29T23:38:24.198Z,13.62
2022-08-29T23:40:53.497Z,13.70
2022-08-29T23:43:46.611Z,13.64
2022-08-29T23:46:19.610Z,13.66
2022-08-29T23:48:48.730Z,13.75
2022-08-29T23:51:17.589Z,13.71
2022-08-29T23:53:51.114Z,13.69
2022-08-29T23:56:22.480Z,13.61
2022-08-29T23:58:51.942Z,13.63
